Time;durP1;ratioP1;P1;durP2;ratioP2;P2;SDS_P1;SDS_P2;PMS_P1;PMS_P2;Temp;Humidity;BMP_temperature;BMP_pressure;BME280_temperature;BME280_humidity;BME280_pressure;Samples;Min_cycle;Max_cycle;Signal;HPM_P1;HPM_P2
2022/10/09 00:00:04;;;;;;;14.35;5.75;;;;;;;;;;1023265;28;20023;-75
2022/10/09 00:00:35;;;;;;;21.38;5.40;;;;;;;;;;1025249;28;20554;-75
2022/10/09 00:01:07;;;;;;;20.45;4.40;;;;;;;;;;1024501;28;20503;-75
2022/10/09 00:01:38;;;;;;;15.68;5.85;;;;;;;;;;1025496;28;20090;-75
2022/10/09 00:02:08;;;;;;;15.98;4.53;;;;;;;;;;1025235;28;20093;-75
2022/10/09 00:02:39;;;;;;;31.88;5.40;;;;;;;;;;1025603;28;20106;-75
2022/10/09 00:03:10;;;;;;;10.80;3.97;;;;;;;;;;1025660;28;20030;-75
2022/10/09 00:03:41;;;;;;;8.88;4.35;;;;;;;;;;1024616;28;20069;-75
2022/10/09 00:04:12;;;;;;;10.52;3.88;;;;;;;;;;1024833;28;20026;-75
2022/10/09 00:04:42;;;;;;;16.48;5.63;;;;;;;;;;1025024;28;20026;-75
2022/10/09 00:05:13;;;;;;;20.35;3.83;;;;;;;;;;1025328;28;20023;-75
2022/10/09 00:05:44;;;;;;;15.45;6.45;;;;;;;;;;1025676;28;20403;-75
2022/10/09 00:06:16;;;;;;;10.00;4.90;;;;;;;;;;1025091;28;20022;-75
2022/10/09 00:06:46;;;;;;;29.17;5.78;;;;;;;;;;1025345;28;20073;-75
2022/10/09 00:07:17;;;;;;;11.30;3.83;;;;;;;;;;1024049;28;20508;-75
2022/10/09 00:07:48;;;;;;;19.50;4.40;;;;;;;;;;1025271;28;20303;-75
2022/10/09 00:08:18;;;;;;;18.92;4.72;;;;;;;;;;1025107;28;20023;-74
2022/10/09 00:08:49;;;;;;;18.80;3.78;;;;;;;;;;1025446;28;20019;-74
2022/10/09 00:09:20;;;;;;;25.33;5.22;;;;;;;;;;1025458;28;20054;-75
2022/10/09 00:09:50;;;;;;;6.82;4.15;;;;;;;;;;1025366;28;20027;-75
2022/10/09 00:10:21;;;;;;;12.30;5.38;;;;;;;;;;1025067;28;20066;-74
2022/10/09 00:10:51;;;;;;;11.02;4.20;;;;;;;;;;1025562;28;20023;-74
2022/10/09 00:11:24;;;;;;;18.55;3.67;;;;;;;;;;1025015;28;20035;-74
2022/10/09 00:11:54;;;;;;;12.38;5.03;;;;;;;;;;1025348;28;20011;-75
2022/10/09 00:12:25;;;;;;;11.65;4.55;;;;;;;;;;1024446;28;20022;-74
2022/10/09 00:12:55;;;;;;;20.40;5.13;;;;;;;;;;1025361;28;20114;-74
2022/10/09 00:13:26;;;;;;;11.85;4.40;;;;;;;;;;1025501;28;20028;-74
2022/10/09 00:13:57;;;;;;;19.92;5.13;;;;;;;;;;1025630;28;20400;-74
2022/10/09 00:14:27;;;;;;;15.55;4.22;;;;;;;;;;1025377;28;20034;-75
2022/10/09 00:14:58;;;;;;;15.77;4.65;;;;;;;;;;1025245;28;20031;-75
2022/10/09 00:15:28;;;;;;;13.00;4.72;;;;;;;;;;1025429;28;20010;-75
2022/10/09 00:16:01;;;;;;;15.63;3.63;;;;;;;;;;1025691;28;20406;-75
2022/10/09 00:16:32;;;;;;;21.23;4.97;;;;;;;;;;1025333;28;20015;-75
2022/10/09 00:17:02;;;;;;;16.38;4.95;;;;;;;;;;1025322;28;20019;-75
2022/10/09 00:17:33;;;;;;;15.55;4.60;;;;;;;;;;1025336;28;20399;-75
2022/10/09 00:18:03;;;;;;;19.55;4.50;;;;;;;;;;1025415;28;20110;-75
2022/10/09 00:18:34;;;;;;;14.20;3.97;;;;;;;;;;1025448;28;20065;-75
2022/10/09 00:19:05;;;;;;;16.33;3.03;;;;;;;;;;1025759;28;20026;-75
2022/10/09 00:19:35;;;;;;;10.48;2.75;;;;;;;;;;1024899;28;20412;-75
2022/10/09 00:20:06;;;;;;;8.35;3.15;;;;;;;;;;1028911;28;20471;-75
2022/10/09 00:20:37;;;;;;;11.25;4.05;;;;;;;;;;1029155;28;20487;-75
2022/10/09 00:21:24;;;;;;;10.73;3.58;;;;;;;;;;1029201;28;20065;-74
2022/10/09 00:21:55;;;;;;;26.35;3.90;;;;;;;;;;1026318;28;20033;-74
2022/10/09 00:22:25;;;;;;;10.35;3.08;;;;;;;;;;1026683;28;20089;-75
2022/10/09 00:22:56;;;;;;;6.00;4.00;;;;;;;;;;1028655;28;20027;-75
2022/10/09 00:23:27;;;;;;;10.60;3.65;;;;;;;;;;1029149;28;20035;-75
2022/10/09 00:23:58;;;;;;;17.52;3.83;;;;;;;;;;1025461;28;20074;-74
2022/10/09 00:24:29;;;;;;;13.75;4.03;;;;;;;;;;1025262;28;20035;-75
2022/10/09 00:24:59;;;;;;;8.77;3.08;;;;;;;;;;1023297;29;20110;-75
2022/10/09 00:25:30;;;;;;;9.45;3.15;;;;;;;;;;1022980;28;20102;-75
2022/10/09 00:26:01;;;;;;;13.18;3.08;;;;;;;;;;1027222;28;20110;-75
2022/10/09 00:26:32;;;;;;;15.27;3.13;;;;;;;;;;1023039;28;20459;-74
2022/10/09 00:27:02;;;;;;;5.40;2.30;;;;;;;;;;1025885;28;20448;-75
2022/10/09 00:27:33;;;;;;;19.35;3.30;;;;;;;;;;1025282;28;20492;-74
2022/10/09 00:28:04;;;;;;;8.40;3.63;;;;;;;;;;1025238;28;20031;-75
2022/10/09 00:28:35;;;;;;;12.02;3.05;;;;;;;;;;1025099;28;20037;-75
2022/10/09 00:29:05;;;;;;;14.50;2.83;;;;;;;;;;1025255;28;20537;-75
2022/10/09 00:29:36;;;;;;;7.03;2.42;;;;;;;;;;1025220;28;20475;-75
2022/10/09 00:30:07;;;;;;;10.10;3.35;;;;;;;;;;1024675;28;21765;-75
2022/10/09 00:30:38;;;;;;;19.73;4.28;;;;;;;;;;1026167;28;20030;-75
2022/10/09 00:31:09;;;;;;;4.63;2.80;;;;;;;;;;1023180;28;20023;-75
2022/10/09 00:31:40;;;;;;;5.57;2.65;;;;;;;;;;1022399;29;20462;-74
2022/10/09 00:32:10;;;;;;;10.38;3.03;;;;;;;;;;1023465;28;20463;-75
2022/10/09 00:32:41;;;;;;;6.15;2.03;;;;;;;;;;1027353;28;20073;-75
2022/10/09 00:33:11;;;;;;;6.20;2.58;;;;;;;;;;1029215;28;20509;-75
2022/10/09 00:33:42;;;;;;;7.38;3.22;;;;;;;;;;1029185;28;20034;-75
2022/10/09 00:34:13;;;;;;;19.67;3.50;;;;;;;;;;1028948;28;20030;-75
2022/10/09 00:34:44;;;;;;;11.38;2.88;;;;;;;;;;1025664;28;20085;-74
2022/10/09 00:35:15;;;;;;;14.57;2.42;;;;;;;;;;1025618;28;20015;-75
2022/10/09 00:35:45;;;;;;;18.08;2.55;;;;;;;;;;1024522;28;20078;-74
2022/10/09 00:36:18;;;;;;;8.63;2.83;;;;;;;;;;1024742;28;20031;-74
2022/10/09 00:36:48;;;;;;;13.00;2.25;;;;;;;;;;1026389;28;20030;-75
2022/10/09 00:37:19;;;;;;;13.68;3.45;;;;;;;;;;1025369;28;20407;-75
2022/10/09 00:37:49;;;;;;;35.28;4.18;;;;;;;;;;1025177;28;20388;-75
2022/10/09 00:38:20;;;;;;;21.30;3.10;;;;;;;;;;1025476;28;20034;-75
2022/10/09 00:38:52;;;;;;;23.73;3.78;;;;;;;;;;1024577;28;20027;-75
2022/10/09 00:39:22;;;;;;;12.32;3.10;;;;;;;;;;1025176;28;20027;-75
2022/10/09 00:39:53;;;;;;;21.30;2.95;;;;;;;;;;1025862;28;20019;-75
2022/10/09 00:40:23;;;;;;;9.30;3.00;;;;;;;;;;1025642;28;20027;-75
2022/10/09 00:40:54;;;;;;;17.30;3.08;;;;;;;;;;1025606;28;20023;-75
2022/10/09 00:41:26;;;;;;;11.10;2.35;;;;;;;;;;1029057;28;20525;-75
2022/10/09 00:41:56;;;;;;;7.22;2.50;;;;;;;;;;1029230;28;20494;-75
2022/10/09 00:42:27;;;;;;;5.50;2.67;;;;;;;;;;1029172;28;20074;-75
2022/10/09 00:42:58;;;;;;;9.88;3.15;;;;;;;;;;1029443;28;20030;-75
2022/10/09 00:43:42;;;;;;;10.48;3.22;;;;;;;;;;1025120;28;20647;-75
2022/10/09 00:44:31;;;;;;;4.38;2.35;;;;;;;;;;1024879;28;20030;-75
2022/10/09 00:45:02;;;;;;;13.13;2.75;;;;;;;;;;1025116;28;20117;-74
2022/10/09 00:45:33;;;;;;;10.77;3.15;;;;;;;;;;1025255;28;20121;-75
2022/10/09 00:46:04;;;;;;;14.55;3.50;;;;;;;;;;1024260;28;20101;-75
2022/10/09 00:46:34;;;;;;;7.15;3.47;;;;;;;;;;1025389;28;20122;-74
2022/10/09 00:47:05;;;;;;;14.80;3.63;;;;;;;;;;1024433;28;20384;-74
2022/10/09 00:47:38;;;;;;;12.70;2.72;;;;;;;;;;1025205;28;20023;-74
2022/10/09 00:48:10;;;;;;;7.88;3.28;;;;;;;;;;1023028;29;20048;-75
2022/10/09 00:48:40;;;;;;;6.13;3.55;;;;;;;;;;1022287;29;20083;-75
2022/10/09 00:49:19;;;;;;;20.55;3.20;;;;;;;;;;1023079;29;20027;-75
2022/10/09 00:49:54;;;;;;;8.27;3.50;;;;;;;;;;1024359;28;20496;-75
2022/10/09 00:50:32;;;;;;;12.77;3.35;;;;;;;;;;1025129;28;20483;-75
2022/10/09 00:51:03;;;;;;;6.82;2.53;;;;;;;;;;1024653;28;20117;-75
2022/10/09 00:51:34;;;;;;;6.45;2.72;;;;;;;;;;1025023;28;20027;-75
2022/10/09 00:52:06;;;;;;;17.35;3.42;;;;;;;;;;1024376;28;20106;-75
2022/10/09 00:52:36;;;;;;;19.77;4.22;;;;;;;;;;1028541;28;20038;-75
2022/10/09 00:53:09;;;;;;;7.68;3.17;;;;;;;;;;1029231;28;20057;-75
2022/10/09 00:53:40;;;;;;;9.00;2.55;;;;;;;;;;1030315;28;20037;-75
2022/10/09 00:54:11;;;;;;;9.40;4.65;;;;;;;;;;1028811;28;20030;-75
2022/10/09 00:54:42;;;;;;;11.05;2.83;;;;;;;;;;1025544;28;20050;-75
2022/10/09 00:55:13;;;;;;;10.30;3.38;;;;;;;;;;1025472;28;20027;-75
2022/10/09 00:55:44;;;;;;;22.02;3.92;;;;;;;;;;1025650;28;20023;-75
2022/10/09 00:56:15;;;;;;;11.60;3.83;;;;;;;;;;1025409;28;20537;-75
2022/10/09 00:56:45;;;;;;;13.98;3.17;;;;;;;;;;1026470;28;20073;-75
2022/10/09 00:57:16;;;;;;;13.43;3.55;;;;;;;;;;1025420;28;20023;-75
2022/10/09 00:57:47;;;;;;;9.60;2.97;;;;;;;;;;1025125;28;20031;-75
2022/10/09 00:58:17;;;;;;;7.20;4.00;;;;;;;;;;1024862;28;20031;-74
2022/10/09 00:58:50;;;;;;;7.50;2.95;;;;;;;;;;1025923;28;20333;-74
2022/10/09 00:59:21;;;;;;;9.50;3.47;;;;;;;;;;1025281;28;20019;-75
2022/10/09 00:59:52;;;;;;;12.52;3.88;;;;;;;;;;1024819;28;20019;-74
2022/10/09 01:00:22;;;;;;;4.97;2.53;;;;;;;;;;1021138;29;20034;-75
2022/10/09 01:00:53;;;;;;;10.65;3.22;;;;;;;;;;1021176;28;20190;-75
2022/10/09 01:01:24;;;;;;;15.95;3.90;;;;;;;;;;1021185;28;20114;-75
2022/10/09 01:01:54;;;;;;;14.45;3.83;;;;;;;;;;1025285;28;20113;-75
2022/10/09 01:02:25;;;;;;;6.80;2.88;;;;;;;;;;1025300;28;20027;-75
2022/10/09 01:02:55;;;;;;;22.33;4.63;;;;;;;;;;1025510;28;20117;-76
2022/10/09 01:03:26;;;;;;;8.82;3.78;;;;;;;;;;1026220;28;20031;-77
2022/10/09 01:03:56;;;;;;;15.93;3.75;;;;;;;;;;1025522;28;20023;-77
2022/10/09 01:04:27;;;;;;;10.05;3.08;;;;;;;;;;1025524;28;20126;-77
2022/10/09 01:04:58;;;;;;;13.45;4.82;;;;;;;;;;1025594;28;20030;-77
2022/10/09 01:05:33;;;;;;;13.88;4.32;;;;;;;;;;1026877;28;20033;-77
2022/10/09 01:06:23;;;;;;;12.73;3.08;;;;;;;;;;1025694;28;20035;-77
2022/10/09 01:07:09;;;;;;;8.05;3.78;;;;;;;;;;1025559;28;20061;-76
2022/10/09 01:07:46;;;;;;;9.25;3.65;;;;;;;;;;1026057;28;20067;-77
2022/10/09 01:08:19;;;;;;;20.92;3.22;;;;;;;;;;1025537;28;20019;-77
2022/10/09 01:09:10;;;;;;;27.30;4.20;;;;;;;;;;1026235;28;20019;-77
2022/10/09 01:09:41;;;;;;;26.38;4.55;;;;;;;;;;1025243;28;20021;-77
2022/10/09 01:10:14;;;;;;;16.90;3.95;;;;;;;;;;1023509;28;20023;-77
2022/10/09 01:10:52;;;;;;;10.90;3.60;;;;;;;;;;1028542;28;20063;-77
2022/10/09 01:11:43;;;;;;;11.20;3.70;;;;;;;;;;1029200;28;20061;-77
2022/10/09 01:12:19;;;;;;;7.65;3.55;;;;;;;;;;1013936;28;20036;-77
2022/10/09 01:13:04;;;;;;;16.65;3.58;;;;;;;;;;1025747;28;20078;-77
2022/10/09 01:13:41;;;;;;;18.98;4.75;;;;;;;;;;1024779;28;20542;-77
2022/10/09 01:14:15;;;;;;;6.07;2.78;;;;;;;;;;1025318;28;20144;-77
2022/10/09 01:15:05;;;;;;;17.70;3.42;;;;;;;;;;1025572;28;20199;-77
2022/10/09 01:15:52;;;;;;;27.42;3.58;;;;;;;;;;1024790;28;20027;-75
2022/10/09 01:16:27;;;;;;;12.48;3.45;;;;;;;;;;1025347;28;20035;-74
2022/10/09 01:17:04;;;;;;;19.73;5.47;;;;;;;;;;1025263;28;20443;-76
2022/10/09 01:17:41;;;;;;;12.45;3.55;;;;;;;;;;1025431;28;20023;-75
2022/10/09 01:18:16;;;;;;;7.20;2.90;;;;;;;;;;1026010;28;20023;-75
2022/10/09 01:19:11;;;;;;;6.15;2.50;;;;;;;;;;1024461;28;20067;-75
2022/10/09 01:19:54;;;;;;;15.63;2.08;;;;;;;;;;1027837;28;20030;-75
2022/10/09 01:20:28;;;;;;;10.23;3.63;;;;;;;;;;1027061;28;20057;-75
2022/10/09 01:21:02;;;;;;;5.15;2.70;;;;;;;;;;1027296;28;20585;-76
2022/10/09 01:21:58;;;;;;;7.43;3.17;;;;;;;;;;1024954;28;20027;-77
2022/10/09 01:22:43;;;;;;;5.53;2.67;;;;;;;;;;1021532;28;20126;-77
2022/10/09 01:23:29;;;;;;;14.90;3.63;;;;;;;;;;1025049;28;20522;-77
2022/10/09 01:24:15;;;;;;;16.63;3.17;;;;;;;;;;1024920;28;20016;-77
2022/10/09 01:24:51;;;;;;;3.78;2.53;;;;;;;;;;1025205;28;20018;-77
2022/10/09 01:25:36;;;;;;;9.05;3.30;;;;;;;;;;1025283;28;20508;-77
2022/10/09 01:26:07;;;;;;;13.75;3.38;;;;;;;;;;1025011;28;20020;-77
2022/10/09 01:27:17;;;;;;;6.47;2.55;;;;;;;;;;1025976;28;20040;-77
2022/10/09 01:27:48;;;;;;;10.90;3.22;;;;;;;;;;1017041;29;20016;-77
2022/10/09 01:28:20;;;;;;;7.63;2.67;;;;;;;;;;1019707;29;20086;-77
2022/10/09 01:28:52;;;;;;;14.27;3.33;;;;;;;;;;1019754;29;20601;-77
2022/10/09 01:29:25;;;;;;;10.88;1.92;;;;;;;;;;1015779;29;20032;-77
2022/10/09 01:29:59;;;;;;;9.25;3.20;;;;;;;;;;1015859;29;20031;-77
2022/10/09 01:30:29;;;;;;;8.80;4.25;;;;;;;;;;1015700;29;20032;-77
2022/10/09 01:31:01;;;;;;;11.73;2.60;;;;;;;;;;1016704;29;20455;-77
2022/10/09 01:31:34;;;;;;;17.80;2.97;;;;;;;;;;1019644;29;20015;-77
2022/10/09 01:32:06;;;;;;;7.25;3.33;;;;;;;;;;1019655;29;20031;-77
2022/10/09 01:32:43;;;;;;;8.57;2.97;;;;;;;;;;1019558;29;20039;-77
2022/10/09 01:33:14;;;;;;;7.95;3.35;;;;;;;;;;1019157;29;20031;-77
2022/10/09 01:33:45;;;;;;;12.55;2.80;;;;;;;;;;1024094;28;20038;-77
2022/10/09 01:34:17;;;;;;;21.35;3.63;;;;;;;;;;1025877;28;20023;-77
2022/10/09 01:34:49;;;;;;;11.77;2.65;;;;;;;;;;1026690;28;20391;-77
2022/10/09 01:35:20;;;;;;;10.25;2.30;;;;;;;;;;1026224;28;20034;-77
2022/10/09 01:35:52;;;;;;;16.33;3.28;;;;;;;;;;1026199;28;20023;-77
2022/10/09 01:36:23;;;;;;;6.28;2.72;;;;;;;;;;1026662;28;20058;-77
2022/10/09 01:36:55;;;;;;;8.57;2.45;;;;;;;;;;1025707;28;20026;-77
2022/10/09 01:37:27;;;;;;;16.65;3.22;;;;;;;;;;1025615;28;20020;-77
2022/10/09 01:37:58;;;;;;;11.90;4.20;;;;;;;;;;1021822;29;20035;-77
2022/10/09 01:38:29;;;;;;;6.75;2.22;;;;;;;;;;1021992;29;20129;-77
2022/10/09 01:39:01;;;;;;;12.55;3.25;;;;;;;;;;1022245;28;20024;-77
2022/10/09 01:39:32;;;;;;;9.82;3.30;;;;;;;;;;1022173;28;20019;-77
2022/10/09 01:40:03;;;;;;;8.75;3.38;;;;;;;;;;1026394;28;20030;-77
2022/10/09 01:40:35;;;;;;;5.93;2.38;;;;;;;;;;1023568;29;20074;-77
2022/10/09 01:41:07;;;;;;;18.15;2.33;;;;;;;;;;1023771;28;20034;-77
2022/10/09 01:41:37;;;;;;;9.23;2.60;;;;;;;;;;1024305;28;20067;-77
2022/10/09 01:42:09;;;;;;;9.63;3.35;;;;;;;;;;1027815;28;20428;-77
2022/10/09 01:42:39;;;;;;;10.30;4.40;;;;;;;;;;1027189;28;20486;-77
2022/10/09 01:43:10;;;;;;;9.70;2.72;;;;;;;;;;1025829;28;20027;-77
2022/10/09 01:43:40;;;;;;;12.73;3.03;;;;;;;;;;1025768;28;20262;-77
2022/10/09 01:44:30;;;;;;;19.33;4.53;;;;;;;;;;1025775;28;20027;-77
2022/10/09 01:45:01;;;;;;;9.00;2.55;;;;;;;;;;1026336;28;20703;-77
2022/10/09 01:45:38;;;;;;;25.92;3.17;;;;;;;;;;1028239;28;20026;-77
2022/10/09 01:46:21;;;;;;;15.10;3.17;;;;;;;;;;1031318;28;20417;-77
2022/10/09 01:46:51;;;;;;;6.57;2.63;;;;;;;;;;1029907;28;20499;-77
2022/10/09 01:47:22;;;;;;;14.85;2.55;;;;;;;;;;1028321;28;20026;-77
2022/10/09 01:47:52;;;;;;;11.93;2.10;;;;;;;;;;1025237;28;20027;-77
2022/10/09 01:48:24;;;;;;;4.78;2.03;;;;;;;;;;1025747;28;20031;-77
2022/10/09 01:49:04;;;;;;;13.05;2.30;;;;;;;;;;1026938;28;20062;-77
2022/10/09 01:49:50;;;;;;;15.02;2.97;;;;;;;;;;1028204;28;20072;-77
2022/10/09 01:50:24;;;;;;;5.90;2.72;;;;;;;;;;1031687;28;20113;-77
2022/10/09 01:50:58;;;;;;;12.68;3.55;;;;;;;;;;1025854;28;20018;-77
2022/10/09 01:51:33;;;;;;;4.60;2.38;;;;;;;;;;1021315;29;20019;-77
2022/10/09 01:52:22;;;;;;;13.50;2.50;;;;;;;;;;1021741;29;20517;-77
2022/10/09 01:52:55;;;;;;;11.23;2.65;;;;;;;;;;1026887;28;20027;-77
2022/10/09 01:53:26;;;;;;;8.73;2.63;;;;;;;;;;1030404;28;20015;-77
2022/10/09 01:54:00;;;;;;;13.63;3.47;;;;;;;;;;1031855;28;20060;-75
2022/10/09 01:54:34;;;;;;;14.63;3.40;;;;;;;;;;1029959;28;20026;-74
2022/10/09 01:55:23;;;;;;;8.77;2.58;;;;;;;;;;1026159;28;20360;-75
2022/10/09 01:55:54;;;;;;;19.75;3.38;;;;;;;;;;1024546;28;20468;-75
2022/10/09 01:56:29;;;;;;;13.60;2.83;;;;;;;;;;1025790;28;20031;-74
2022/10/09 01:57:02;;;;;;;16.05;2.58;;;;;;;;;;1025635;28;20031;-75
2022/10/09 01:57:32;;;;;;;12.27;3.45;;;;;;;;;;1026381;28;20032;-74
2022/10/09 01:58:21;;;;;;;5.60;2.30;;;;;;;;;;1026018;28;20030;-74
2022/10/09 01:58:57;;;;;;;8.75;2.35;;;;;;;;;;1025452;28;20027;-74
2022/10/09 01:59:29;;;;;;;11.68;2.58;;;;;;;;;;1026114;28;20023;-74
2022/10/09 02:00:01;;;;;;;14.05;3.25;;;;;;;;;;1025864;28;20365;-74
2022/10/09 02:00:33;;;;;;;15.82;3.40;;;;;;;;;;1025590;28;20018;-75
2022/10/09 02:01:15;;;;;;;4.80;2.22;;;;;;;;;;1028351;28;20025;-75
2022/10/09 02:01:46;;;;;;;9.52;4.15;;;;;;;;;;1027826;28;20034;-75
2022/10/09 02:02:17;;;;;;;8.20;2.80;;;;;;;;;;1027776;28;20058;-75
2022/10/09 02:02:49;;;;;;;16.88;4.43;;;;;;;;;;1026656;28;20033;-75
2022/10/09 02:03:20;;;;;;;10.57;2.22;;;;;;;;;;1027134;28;20027;-75
2022/10/09 02:03:51;;;;;;;13.75;3.40;;;;;;;;;;1026035;28;20360;-75
2022/10/09 02:04:22;;;;;;;20.15;3.25;;;;;;;;;;1026278;28;20035;-75
2022/10/09 02:04:54;;;;;;;22.98;3.30;;;;;;;;;;1026416;28;20023;-75
2022/10/09 02:05:25;;;;;;;9.43;2.22;;;;;;;;;;1026019;28;20015;-75
2022/10/09 02:05:56;;;;;;;13.85;2.50;;;;;;;;;;1026765;28;20023;-75
2022/10/09 02:06:27;;;;;;;15.43;2.72;;;;;;;;;;1026012;28;20035;-75
2022/10/09 02:06:58;;;;;;;10.75;3.67;;;;;;;;;;1026764;28;20073;-75
2022/10/09 02:07:31;;;;;;;6.85;2.88;;;;;;;;;;1027043;28;20439;-75
2022/10/09 02:08:01;;;;;;;9.75;3.28;;;;;;;;;;1026119;28;20077;-75
2022/10/09 02:08:33;;;;;;;9.68;2.53;;;;;;;;;;1026165;28;20074;-75
2022/10/09 02:09:06;;;;;;;9.70;2.90;;;;;;;;;;1025906;28;20027;-75
2022/10/09 02:09:37;;;;;;;9.82;3.03;;;;;;;;;;1025649;28;20031;-75
2022/10/09 02:10:08;;;;;;;12.23;2.60;;;;;;;;;;1025692;28;20114;-74
2022/10/09 02:10:40;;;;;;;7.70;3.30;;;;;;;;;;1026197;28;20031;-75
2022/10/09 02:11:13;;;;;;;8.43;1.58;;;;;;;;;;1026188;28;20029;-75
2022/10/09 02:11:47;;;;;;;13.25;3.42;;;;;;;;;;1026144;28;21214;-75
2022/10/09 02:12:19;;;;;;;8.48;2.80;;;;;;;;;;1026562;28;20118;-75
2022/10/09 02:12:52;;;;;;;8.95;3.10;;;;;;;;;;1025981;28;20110;-75
2022/10/09 02:13:23;;;;;;;7.53;3.03;;;;;;;;;;1025793;28;20031;-75
2022/10/09 02:13:54;;;;;;;4.78;2.45;;;;;;;;;;1026968;28;20027;-75
2022/10/09 02:14:25;;;;;;;10.43;3.75;;;;;;;;;;1025659;28;20601;-75
2022/10/09 02:14:55;;;;;;;10.13;2.75;;;;;;;;;;1025811;28;20025;-75
2022/10/09 02:15:29;;;;;;;9.02;2.95;;;;;;;;;;1025657;28;20062;-75
2022/10/09 02:16:06;;;;;;;17.33;3.17;;;;;;;;;;1023323;28;20030;-75
2022/10/09 02:16:36;;;;;;;9.35;2.38;;;;;;;;;;1023610;29;20094;-75
2022/10/09 02:17:13;;;;;;;11.48;2.30;;;;;;;;;;1024535;28;20027;-75
2022/10/09 02:17:47;;;;;;;15.45;2.92;;;;;;;;;;1026013;28;20054;-75
2022/10/09 02:18:21;;;;;;;14.65;2.15;;;;;;;;;;1025808;28;20113;-75
2022/10/09 02:18:55;;;;;;;17.00;3.88;;;;;;;;;;1026955;28;20040;-75
2022/10/09 02:19:31;;;;;;;13.00;4.18;;;;;;;;;;1024953;28;20015;-75
2022/10/09 02:20:13;;;;;;;12.93;2.95;;;;;;;;;;1025821;28;20041;-74
2022/10/09 02:20:47;;;;;;;5.35;2.22;;;;;;;;;;1026714;28;20027;-75
2022/10/09 02:21:21;;;;;;;8.70;2.50;;;;;;;;;;1025769;28;20023;-75
2022/10/09 02:21:54;;;;;;;13.98;2.95;;;;;;;;;;1025965;28;20030;-75
2022/10/09 02:22:28;;;;;;;23.35;3.60;;;;;;;;;;1026784;28;20483;-75
2022/10/09 02:23:01;;;;;;;10.80;2.95;;;;;;;;;;1026266;28;20038;-75
2022/10/09 02:23:32;;;;;;;12.63;2.97;;;;;;;;;;1026516;28;20069;-75
2022/10/09 02:24:05;;;;;;;10.10;3.40;;;;;;;;;;1029045;28;20015;-75
2022/10/09 02:24:36;;;;;;;9.80;3.38;;;;;;;;;;1030266;28;20026;-74
2022/10/09 02:25:07;;;;;;;13.43;3.03;;;;;;;;;;1029636;28;20019;-76
2022/10/09 02:25:38;;;;;;;16.77;2.97;;;;;;;;;;1025175;28;20373;-77
2022/10/09 02:26:09;;;;;;;11.77;3.78;;;;;;;;;;1025270;28;20078;-77
2022/10/09 02:26:40;;;;;;;16.35;3.40;;;;;;;;;;1025613;28;20130;-77
2022/10/09 02:27:11;;;;;;;10.07;3.38;;;;;;;;;;1025325;28;20112;-75
2022/10/09 02:27:42;;;;;;;10.02;3.08;;;;;;;;;;1026299;28;20081;-75
2022/10/09 02:28:12;;;;;;;8.70;2.20;;;;;;;;;;1025676;28;20023;-75
2022/10/09 02:28:43;;;;;;;15.30;3.38;;;;;;;;;;1025598;28;20668;-75
2022/10/09 02:29:14;;;;;;;10.02;3.25;;;;;;;;;;1025664;28;20033;-75
2022/10/09 02:29:45;;;;;;;15.10;4.60;;;;;;;;;;1024299;28;20424;-75
2022/10/09 02:30:16;;;;;;;11.43;2.88;;;;;;;;;;1025831;28;20061;-75
2022/10/09 02:30:51;;;;;;;25.20;3.78;;;;;;;;;;1025447;28;20026;-75
2022/10/09 02:31:25;;;;;;;13.38;4.10;;;;;;;;;;1025317;28;20097;-75
2022/10/09 02:31:56;;;;;;;18.02;3.05;;;;;;;;;;1026651;28;20034;-75
2022/10/09 02:32:27;;;;;;;12.10;3.08;;;;;;;;;;1025661;28;20594;-75
2022/10/09 02:32:57;;;;;;;8.90;3.15;;;;;;;;;;1026189;28;20031;-75
2022/10/09 02:33:32;;;;;;;8.93;3.22;;;;;;;;;;1025851;28;20078;-75
2022/10/09 02:34:04;;;;;;;12.82;3.33;;;;;;;;;;1026853;28;20026;-75
2022/10/09 02:34:34;;;;;;;15.20;3.28;;;;;;;;;;1025690;28;20023;-75
2022/10/09 02:35:06;;;;;;;11.07;2.80;;;;;;;;;;1025354;28;20023;-77
2022/10/09 02:35:36;;;;;;;11.38;3.38;;;;;;;;;;1025955;28;20050;-77
2022/10/09 02:36:07;;;;;;;17.48;3.65;;;;;;;;;;1025755;28;20484;-77
2022/10/09 02:36:38;;;;;;;12.60;4.22;;;;;;;;;;1025513;28;20025;-77
2022/10/09 02:37:08;;;;;;;7.65;2.58;;;;;;;;;;1025934;28;20069;-77
2022/10/09 02:37:39;;;;;;;15.80;3.53;;;;;;;;;;1025735;28;20498;-77
2022/10/09 02:38:09;;;;;;;8.82;2.67;;;;;;;;;;1025406;28;20483;-77
2022/10/09 02:38:40;;;;;;;7.30;2.55;;;;;;;;;;1025999;28;20073;-77
2022/10/09 02:39:11;;;;;;;5.75;2.67;;;;;;;;;;1025965;28;20122;-77
2022/10/09 02:39:42;;;;;;;19.15;2.60;;;;;;;;;;1026008;28;20027;-77
2022/10/09 02:40:13;;;;;;;12.07;3.28;;;;;;;;;;1027785;28;20102;-77
2022/10/09 02:40:44;;;;;;;13.10;3.63;;;;;;;;;;1029609;28;20101;-75
2022/10/09 02:41:14;;;;;;;14.80;3.35;;;;;;;;;;1029683;28;20469;-75
2022/10/09 02:41:45;;;;;;;10.30;3.35;;;;;;;;;;1029676;28;20407;-75
2022/10/09 02:42:15;;;;;;;11.07;2.45;;;;;;;;;;1024580;28;20057;-75
2022/10/09 02:42:46;;;;;;;9.95;3.17;;;;;;;;;;1025686;28;20061;-74
2022/10/09 02:43:16;;;;;;;10.15;2.83;;;;;;;;;;1025654;28;20072;-74
2022/10/09 02:43:47;;;;;;;11.57;2.53;;;;;;;;;;1025662;28;20097;-74
2022/10/09 02:44:18;;;;;;;16.55;3.50;;;;;;;;;;1026029;28;20432;-74
2022/10/09 02:44:48;;;;;;;12.98;3.90;;;;;;;;;;1025048;28;20137;-74
2022/10/09 02:45:19;;;;;;;14.00;3.47;;;;;;;;;;1025983;28;20179;-75
2022/10/09 02:45:49;;;;;;;6.18;2.17;;;;;;;;;;1025331;28;20072;-75
2022/10/09 02:46:20;;;;;;;12.73;3.28;;;;;;;;;;1022961;29;20027;-75
2022/10/09 02:46:50;;;;;;;7.10;2.72;;;;;;;;;;1023688;29;20015;-75
2022/10/09 02:47:21;;;;;;;6.32;2.70;;;;;;;;;;1023747;28;20097;-77
2022/10/09 02:47:51;;;;;;;14.55;3.55;;;;;;;;;;1027581;28;20026;-77
2022/10/09 02:48:22;;;;;;;13.90;3.38;;;;;;;;;;1026786;28;20190;-75
2022/10/09 02:48:52;;;;;;;10.27;3.47;;;;;;;;;;1025978;28;20387;-75
2022/10/09 02:49:23;;;;;;;20.70;3.15;;;;;;;;;;1025546;28;20097;-75
2022/10/09 02:49:55;;;;;;;13.95;2.65;;;;;;;;;;1025423;28;20027;-75
2022/10/09 02:50:26;;;;;;;11.13;3.50;;;;;;;;;;1026278;28;20022;-75
2022/10/09 02:50:56;;;;;;;23.13;4.47;;;;;;;;;;1024013;28;20144;-75
2022/10/09 02:51:27;;;;;;;17.02;2.80;;;;;;;;;;1025587;28;20026;-75
2022/10/09 02:51:57;;;;;;;13.15;2.75;;;;;;;;;;1025534;28;20019;-75
2022/10/09 02:52:28;;;;;;;13.35;2.97;;;;;;;;;;1023310;28;20180;-75
2022/10/09 02:52:58;;;;;;;17.90;2.75;;;;;;;;;;1025675;28;20027;-75
2022/10/09 02:53:29;;;;;;;12.48;3.25;;;;;;;;;;1025419;28;20059;-75
2022/10/09 02:54:00;;;;;;;11.00;2.75;;;;;;;;;;1025673;28;20110;-75
2022/10/09 02:54:30;;;;;;;6.88;2.88;;;;;;;;;;1025552;28;20031;-75
2022/10/09 02:55:01;;;;;;;6.20;3.17;;;;;;;;;;1025661;28;20033;-75
2022/10/09 02:55:31;;;;;;;13.27;3.00;;;;;;;;;;1029595;28;20035;-75
2022/10/09 02:56:02;;;;;;;11.02;2.60;;;;;;;;;;1029043;28;20026;-75
2022/10/09 02:56:33;;;;;;;8.23;3.03;;;;;;;;;;1029508;28;20045;-75
2022/10/09 02:57:03;;;;;;;18.13;4.43;;;;;;;;;;1025834;28;20027;-75
2022/10/09 02:57:34;;;;;;;6.18;2.28;;;;;;;;;;1029458;28;20027;-75
2022/10/09 02:58:04;;;;;;;6.03;3.33;;;;;;;;;;1029326;28;20026;-74
2022/10/09 02:58:35;;;;;;;13.63;3.10;;;;;;;;;;1029626;28;20022;-75
2022/10/09 02:59:05;;;;;;;3.47;1.88;;;;;;;;;;1029580;28;20033;-75
2022/10/09 02:59:36;;;;;;;5.90;2.88;;;;;;;;;;1025857;28;20054;-75
2022/10/09 03:00:07;;;;;;;11.18;2.70;;;;;;;;;;1025965;28;20046;-75
2022/10/09 03:00:38;;;;;;;18.83;3.47;;;;;;;;;;1029208;28;20027;-75
2022/10/09 03:01:08;;;;;;;12.90;3.85;;;;;;;;;;1025389;28;20027;-75
2022/10/09 03:01:39;;;;;;;25.85;3.05;;;;;;;;;;1025707;28;20082;-75
2022/10/09 03:02:09;;;;;;;18.08;2.38;;;;;;;;;;1025611;28;20057;-75
2022/10/09 03:02:40;;;;;;;5.85;1.95;;;;;;;;;;1025493;28;20558;-75
2022/10/09 03:03:10;;;;;;;9.55;3.22;;;;;;;;;;1025546;28;20038;-75
2022/10/09 03:03:41;;;;;;;8.82;1.85;;;;;;;;;;1025421;28;20033;-75
2022/10/09 03:04:11;;;;;;;15.25;3.00;;;;;;;;;;1023546;28;20027;-75
2022/10/09 03:04:42;;;;;;;12.73;2.97;;;;;;;;;;1025524;28;20133;-75
2022/10/09 03:05:12;;;;;;;13.25;2.88;;;;;;;;;;1025478;28;20026;-75
2022/10/09 03:05:43;;;;;;;10.85;2.45;;;;;;;;;;1024964;28;20023;-75
2022/10/09 03:06:15;;;;;;;11.38;3.25;;;;;;;;;;1026383;28;20038;-75
2022/10/09 03:06:46;;;;;;;4.72;1.85;;;;;;;;;;1025810;28;20019;-75
2022/10/09 03:07:16;;;;;;;7.22;2.15;;;;;;;;;;1025767;28;20047;-75
2022/10/09 03:07:50;;;;;;;14.27;2.88;;;;;;;;;;1025880;28;20129;-75
2022/10/09 03:08:20;;;;;;;9.82;2.58;;;;;;;;;;1025097;28;20029;-75
2022/10/09 03:08:51;;;;;;;7.13;3.22;;;;;;;;;;1025777;28;20031;-75
2022/10/09 03:09:22;;;;;;;7.68;2.20;;;;;;;;;;1025565;28;20043;-75
2022/10/09 03:09:53;;;;;;;12.75;2.30;;;;;;;;;;1025573;28;20122;-75
2022/10/09 03:10:23;;;;;;;5.20;1.88;;;;;;;;;;1025755;28;20028;-75
2022/10/09 03:10:54;;;;;;;13.27;3.88;;;;;;;;;;1027020;28;20026;-75
2022/10/09 03:11:25;;;;;;;7.70;2.17;;;;;;;;;;1024749;28;20023;-75
2022/10/09 03:11:55;;;;;;;16.90;2.40;;;;;;;;;;1025758;28;20081;-75
2022/10/09 03:12:26;;;;;;;8.93;1.88;;;;;;;;;;1029412;28;20026;-75
2022/10/09 03:12:57;;;;;;;13.35;2.35;;;;;;;;;;1029215;28;20034;-75
2022/10/09 03:13:27;;;;;;;9.18;2.28;;;;;;;;;;1025434;28;20031;-75
2022/10/09 03:13:58;;;;;;;10.98;2.00;;;;;;;;;;1025457;28;22054;-75